sensor_id;sensor_type;location;lat;lon;timestamp;P1;durP1;ratioP1;P2;durP2;ratioP2
37051;SDS011;22964;52.272;13.356;2022-10-28T00:00:03;5.55;;;2.42;;
37051;SDS011;22964;52.272;13.356;2022-10-28T00:02:31;5.43;;;2.60;;
37051;SDS011;22964;52.272;13.356;2022-10-28T00:04:57;6.93;;;2.67;;
37051;SDS011;22964;52.272;13.356;2022-10-28T00:07:22;6.18;;;2.72;;
37051;SDS011;22964;52.272;13.356;2022-10-28T00:09:48;5.80;;;2.55;;
37051;SDS011;22964;52.272;13.356;2022-10-28T00:12:14;5.20;;;2.70;;
37051;SDS011;22964;52.272;13.356;2022-10-28T00:14:40;5.25;;;2.58;;
37051;SDS011;22964;52.272;13.356;2022-10-28T00:17:05;6.55;;;2.60;;
37051;SDS011;22964;52.272;13.356;2022-10-28T00:19:31;5.43;;;2.50;;
37051;SDS011;22964;52.272;13.356;2022-10-28T00:21:57;5.65;;;2.40;;
37051;SDS011;22964;52.272;13.356;2022-10-28T00:24:22;7.68;;;2.70;;
37051;SDS011;22964;52.272;13.356;2022-10-28T00:26:48;5.72;;;3.00;;
37051;SDS011;22964;52.272;13.356;2022-10-28T00:29:15;6.63;;;2.60;;
37051;SDS011;22964;52.272;13.356;2022-10-28T00:31:42;4.60;;;2.40;;
37051;SDS011;22964;52.272;13.356;2022-10-28T00:34:10;5.15;;;2.83;;
37051;SDS011;22964;52.272;13.356;2022-10-28T00:36:41;4.32;;;2.63;;
37051;SDS011;22964;52.272;13.356;2022-10-28T00:39:11;6.50;;;2.88;;
37051;SDS011;22964;52.272;13.356;2022-10-28T00:41:38;5.47;;;2.50;;
37051;SDS011;22964;52.272;13.356;2022-10-28T00:47:05;4.45;;;2.58;;
37051;SDS011;22964;52.272;13.356;2022-10-28T00:49:38;6.30;;;2.70;;
37051;SDS011;22964;52.272;13.356;2022-10-28T00:52:06;6.68;;;2.33;;
37051;SDS011;22964;52.272;13.356;2022-10-28T00:54:37;5.32;;;2.65;;
37051;SDS011;22964;52.272;13.356;2022-10-28T00:57:04;4.38;;;2.70;;
37051;SDS011;22964;52.272;13.356;2022-10-28T00:59:36;6.15;;;2.25;;
37051;SDS011;22964;52.272;13.356;2022-10-28T01:02:05;5.70;;;2.72;;
37051;SDS011;22964;52.272;13.356;2022-10-28T01:04:31;5.57;;;2.65;;
37051;SDS011;22964;52.272;13.356;2022-10-28T01:06:57;3.50;;;2.35;;
37051;SDS011;22964;52.272;13.356;2022-10-28T01:09:25;5.22;;;2.65;;
37051;SDS011;22964;52.272;13.356;2022-10-28T01:11:56;5.15;;;2.60;;
37051;SDS011;22964;52.272;13.356;2022-10-28T01:28:43;6.03;;;2.45;;
37051;SDS011;22964;52.272;13.356;2022-10-28T01:33:52;4.78;;;2.67;;
37051;SDS011;22964;52.272;13.356;2022-10-28T01:36:21;6.35;;;2.58;;
37051;SDS011;22964;52.272;13.356;2022-10-28T01:41:51;3.78;;;2.60;;
37051;SDS011;22964;52.272;13.356;2022-10-28T01:44:23;5.70;;;2.72;;
37051;SDS011;22964;52.272;13.356;2022-10-28T01:47:19;5.32;;;2.80;;
37051;SDS011;22964;52.272;13.356;2022-10-28T01:52:35;3.65;;;2.58;;
37051;SDS011;22964;52.272;13.356;2022-10-28T01:55:09;7.25;;;2.70;;
37051;SDS011;22964;52.272;13.356;2022-10-28T01:57:42;5.88;;;2.70;;
37051;SDS011;22964;52.272;13.356;2022-10-28T02:00:11;4.75;;;2.60;;
37051;SDS011;22964;52.272;13.356;2022-10-28T02:02:37;4.32;;;2.50;;
37051;SDS011;22964;52.272;13.356;2022-10-28T02:05:05;5.35;;;2.60;;
37051;SDS011;22964;52.272;13.356;2022-10-28T02:07:50;4.88;;;2.70;;
37051;SDS011;22964;52.272;13.356;2022-10-28T02:10:22;3.72;;;2.53;;
37051;SDS011;22964;52.272;13.356;2022-10-28T02:12:58;3.78;;;2.40;;
37051;SDS011;22964;52.272;13.356;2022-10-28T02:15:34;5.40;;;2.47;;
37051;SDS011;22964;52.272;13.356;2022-10-28T02:18:15;7.00;;;2.47;;
37051;SDS011;22964;52.272;13.356;2022-10-28T02:21:17;3.55;;;2.40;;
37051;SDS011;22964;52.272;13.356;2022-10-28T02:23:55;5.07;;;2.55;;
37051;SDS011;22964;52.272;13.356;2022-10-28T02:26:37;7.78;;;2.50;;
37051;SDS011;22964;52.272;13.356;2022-10-28T02:29:14;4.95;;;2.70;;
37051;SDS011;22964;52.272;13.356;2022-10-28T02:31:47;6.13;;;2.70;;
37051;SDS011;22964;52.272;13.356;2022-10-28T02:34:17;9.82;;;3.10;;
37051;SDS011;22964;52.272;13.356;2022-10-28T02:36:48;8.80;;;3.10;;
37051;SDS011;22964;52.272;13.356;2022-10-28T02:39:17;5.72;;;2.67;;
37051;SDS011;22964;52.272;13.356;2022-10-28T02:44:57;5.40;;;2.85;;
37051;SDS011;22964;52.272;13.356;2022-10-28T02:47:30;5.85;;;2.70;;
37051;SDS011;22964;52.272;13.356;2022-10-28T02:50:00;3.90;;;2.53;;
37051;SDS011;22964;52.272;13.356;2022-10-28T02:52:30;5.85;;;2.60;;
37051;SDS011;22964;52.272;13.356;2022-10-28T02:55:00;5.88;;;2.65;;
37051;SDS011;22964;52.272;13.356;2022-10-28T02:57:33;7.93;;;3.00;;
37051;SDS011;22964;52.272;13.356;2022-10-28T03:00:04;6.40;;;2.70;;
37051;SDS011;22964;52.272;13.356;2022-10-28T03:02:32;5.68;;;2.75;;
37051;SDS011;22964;52.272;13.356;2022-10-28T03:04:58;4.43;;;2.65;;
37051;SDS011;22964;52.272;13.356;2022-10-28T03:07:24;5.68;;;2.58;;
37051;SDS011;22964;52.272;13.356;2022-10-28T03:09:49;5.38;;;3.10;;
37051;SDS011;22964;52.272;13.356;2022-10-28T03:12:15;8.75;;;3.00;;
37051;SDS011;22964;52.272;13.356;2022-10-28T03:14:41;7.65;;;2.90;;
37051;SDS011;22964;52.272;13.356;2022-10-28T03:17:07;4.75;;;2.88;;
37051;SDS011;22964;52.272;13.356;2022-10-28T03:19:33;5.80;;;2.72;;
37051;SDS011;22964;52.272;13.356;2022-10-28T03:21:58;4.70;;;2.88;;
37051;SDS011;22964;52.272;13.356;2022-10-28T03:24:24;4.25;;;2.75;;
37051;SDS011;22964;52.272;13.356;2022-10-28T03:26:50;4.43;;;2.60;;
37051;SDS011;22964;52.272;13.356;2022-10-28T03:29:15;6.22;;;2.80;;
37051;SDS011;22964;52.272;13.356;2022-10-28T03:31:41;7.57;;;2.95;;
37051;SDS011;22964;52.272;13.356;2022-10-28T03:34:07;5.95;;;3.03;;
37051;SDS011;22964;52.272;13.356;2022-10-28T03:36:32;6.45;;;2.78;;
37051;SDS011;22964;52.272;13.356;2022-10-28T03:38:58;4.75;;;2.90;;
37051;SDS011;22964;52.272;13.356;2022-10-28T03:41:24;4.88;;;2.78;;
37051;SDS011;22964;52.272;13.356;2022-10-28T03:43:49;5.10;;;2.97;;
37051;SDS011;22964;52.272;13.356;2022-10-28T03:46:15;4.57;;;3.22;;
37051;SDS011;22964;52.272;13.356;2022-10-28T03:48:41;6.82;;;2.90;;
37051;SDS011;22964;52.272;13.356;2022-10-28T03:51:06;4.63;;;2.90;;
37051;SDS011;22964;52.272;13.356;2022-10-28T03:53:32;4.97;;;2.70;;
37051;SDS011;22964;52.272;13.356;2022-10-28T03:55:58;6.78;;;2.95;;
37051;SDS011;22964;52.272;13.356;2022-10-28T03:58:25;5.70;;;2.80;;
37051;SDS011;22964;52.272;13.356;2022-10-28T04:00:51;6.35;;;3.00;;
37051;SDS011;22964;52.272;13.356;2022-10-28T04:03:18;5.18;;;2.92;;
37051;SDS011;22964;52.272;13.356;2022-10-28T04:05:45;5.72;;;2.95;;
37051;SDS011;22964;52.272;13.356;2022-10-28T04:08:14;4.70;;;2.75;;
37051;SDS011;22964;52.272;13.356;2022-10-28T04:10:41;4.30;;;2.47;;
37051;SDS011;22964;52.272;13.356;2022-10-28T04:13:07;5.82;;;2.78;;
37051;SDS011;22964;52.272;13.356;2022-10-28T04:15:34;5.35;;;2.78;;
37051;SDS011;22964;52.272;13.356;2022-10-28T04:17:59;5.35;;;3.00;;
37051;SDS011;22964;52.272;13.356;2022-10-28T04:20:25;4.50;;;2.70;;
37051;SDS011;22964;52.272;13.356;2022-10-28T04:22:52;5.68;;;2.92;;
37051;SDS011;22964;52.272;13.356;2022-10-28T04:25:19;3.85;;;2.67;;
37051;SDS011;22964;52.272;13.356;2022-10-28T04:27:49;6.63;;;2.80;;
37051;SDS011;22964;52.272;13.356;2022-10-28T04:30:15;4.82;;;2.78;;
37051;SDS011;22964;52.272;13.356;2022-10-28T04:32:41;6.13;;;2.72;;
37051;SDS011;22964;52.272;13.356;2022-10-28T04:35:07;6.20;;;2.67;;
37051;SDS011;22964;52.272;13.356;2022-10-28T04:37:34;4.85;;;2.92;;
37051;SDS011;22964;52.272;13.356;2022-10-28T04:40:00;5.35;;;3.17;;
37051;SDS011;22964;52.272;13.356;2022-10-28T04:42:26;5.80;;;2.90;;
37051;SDS011;22964;52.272;13.356;2022-10-28T04:44:52;5.70;;;2.65;;
37051;SDS011;22964;52.272;13.356;2022-10-28T04:47:17;5.03;;;2.60;;
37051;SDS011;22964;52.272;13.356;2022-10-28T04:49:43;5.60;;;3.00;;
37051;SDS011;22964;52.272;13.356;2022-10-28T04:52:09;4.55;;;2.35;;
37051;SDS011;22964;52.272;13.356;2022-10-28T04:54:35;5.00;;;2.70;;
37051;SDS011;22964;52.272;13.356;2022-10-28T04:57:01;4.95;;;2.90;;
37051;SDS011;22964;52.272;13.356;2022-10-28T04:59:27;8.00;;;2.65;;
37051;SDS011;22964;52.272;13.356;2022-10-28T05:01:53;5.85;;;2.38;;
37051;SDS011;22964;52.272;13.356;2022-10-28T05:04:18;5.63;;;2.47;;
37051;SDS011;22964;52.272;13.356;2022-10-28T05:06:44;4.95;;;2.80;;
37051;SDS011;22964;52.272;13.356;2022-10-28T05:09:10;3.88;;;2.42;;
37051;SDS011;22964;52.272;13.356;2022-10-28T05:11:35;4.18;;;2.70;;
37051;SDS011;22964;52.272;13.356;2022-10-28T05:14:01;4.50;;;2.75;;
37051;SDS011;22964;52.272;13.356;2022-10-28T05:16:27;4.22;;;2.67;;
37051;SDS011;22964;52.272;13.356;2022-10-28T05:18:53;4.93;;;2.55;;
37051;SDS011;22964;52.272;13.356;2022-10-28T05:21:18;5.68;;;3.33;;
37051;SDS011;22964;52.272;13.356;2022-10-28T05:23:44;6.05;;;3.30;;
37051;SDS011;22964;52.272;13.356;2022-10-28T05:26:11;4.78;;;3.17;;
37051;SDS011;22964;52.272;13.356;2022-10-28T05:28:37;6.72;;;2.95;;
37051;SDS011;22964;52.272;13.356;2022-10-28T05:31:03;7.68;;;3.40;;
37051;SDS011;22964;52.272;13.356;2022-10-28T05:33:29;8.05;;;2.97;;
37051;SDS011;22964;52.272;13.356;2022-10-28T05:35:57;7.85;;;3.13;;
37051;SDS011;22964;52.272;13.356;2022-10-28T05:38:22;6.68;;;3.00;;
37051;SDS011;22964;52.272;13.356;2022-10-28T05:40:48;8.88;;;3.22;;
37051;SDS011;22964;52.272;13.356;2022-10-28T05:43:14;5.30;;;2.92;;
37051;SDS011;22964;52.272;13.356;2022-10-28T05:45:39;6.00;;;2.70;;
37051;SDS011;22964;52.272;13.356;2022-10-28T05:48:05;6.63;;;2.90;;
37051;SDS011;22964;52.272;13.356;2022-10-28T05:50:31;5.25;;;3.08;;
37051;SDS011;22964;52.272;13.356;2022-10-28T05:52:57;6.47;;;2.83;;
37051;SDS011;22964;52.272;13.356;2022-10-28T05:55:23;5.03;;;2.80;;
37051;SDS011;22964;52.272;13.356;2022-10-28T05:57:52;4.45;;;2.60;;
37051;SDS011;22964;52.272;13.356;2022-10-28T06:00:20;4.55;;;2.80;;
37051;SDS011;22964;52.272;13.356;2022-10-28T06:02:47;4.28;;;2.63;;
37051;SDS011;22964;52.272;13.356;2022-10-28T06:05:13;6.95;;;2.90;;
37051;SDS011;22964;52.272;13.356;2022-10-28T06:07:39;4.05;;;2.78;;
37051;SDS011;22964;52.272;13.356;2022-10-28T06:10:05;6.70;;;3.00;;
37051;SDS011;22964;52.272;13.356;2022-10-28T06:12:32;6.00;;;2.75;;
37051;SDS011;22964;52.272;13.356;2022-10-28T06:14:58;5.07;;;3.13;;
37051;SDS011;22964;52.272;13.356;2022-10-28T06:17:24;6.88;;;3.00;;
37051;SDS011;22964;52.272;13.356;2022-10-28T06:19:50;5.32;;;2.75;;
37051;SDS011;22964;52.272;13.356;2022-10-28T06:22:16;7.95;;;3.08;;
37051;SDS011;22964;52.272;13.356;2022-10-28T06:24:42;4.95;;;2.92;;
37051;SDS011;22964;52.272;13.356;2022-10-28T06:27:08;6.32;;;2.60;;
37051;SDS011;22964;52.272;13.356;2022-10-28T06:29:33;7.18;;;3.60;;
37051;SDS011;22964;52.272;13.356;2022-10-28T06:32:00;6.47;;;3.15;;
37051;SDS011;22964;52.272;13.356;2022-10-28T06:34:25;5.32;;;2.97;;
37051;SDS011;22964;52.272;13.356;2022-10-28T06:36:51;8.57;;;3.00;;
37051;SDS011;22964;52.272;13.356;2022-10-28T06:39:17;6.53;;;3.05;;
37051;SDS011;22964;52.272;13.356;2022-10-28T06:41:43;5.38;;;2.65;;
37051;SDS011;22964;52.272;13.356;2022-10-28T06:44:09;4.38;;;2.65;;
37051;SDS011;22964;52.272;13.356;2022-10-28T06:46:34;6.82;;;2.78;;
37051;SDS011;22964;52.272;13.356;2022-10-28T06:49:00;9.57;;;2.97;;
37051;SDS011;22964;52.272;13.356;2022-10-28T06:51:27;10.20;;;3.20;;
37051;SDS011;22964;52.272;13.356;2022-10-28T06:53:54;6.03;;;2.90;;
37051;SDS011;22964;52.272;13.356;2022-10-28T06:56:19;7.50;;;3.03;;
37051;SDS011;22964;52.272;13.356;2022-10-28T06:58:50;5.30;;;2.70;;
37051;SDS011;22964;52.272;13.356;2022-10-28T07:01:17;5.00;;;2.50;;
37051;SDS011;22964;52.272;13.356;2022-10-28T07:03:43;6.78;;;2.70;;
37051;SDS011;22964;52.272;13.356;2022-10-28T07:06:09;7.80;;;2.47;;
37051;SDS011;22964;52.272;13.356;2022-10-28T07:08:34;5.82;;;2.70;;
37051;SDS011;22964;52.272;13.356;2022-10-28T07:11:00;7.25;;;3.22;;
37051;SDS011;22964;52.272;13.356;2022-10-28T07:13:26;6.05;;;3.00;;
37051;SDS011;22964;52.272;13.356;2022-10-28T07:15:53;7.68;;;2.97;;
37051;SDS011;22964;52.272;13.356;2022-10-28T07:18:20;6.95;;;2.95;;
37051;SDS011;22964;52.272;13.356;2022-10-28T07:20:46;6.70;;;2.70;;
37051;SDS011;22964;52.272;13.356;2022-10-28T07:23:12;7.20;;;3.13;;
37051;SDS011;22964;52.272;13.356;2022-10-28T07:25:38;7.32;;;3.22;;
37051;SDS011;22964;52.272;13.356;2022-10-28T07:28:04;4.50;;;2.67;;
37051;SDS011;22964;52.272;13.356;2022-10-28T07:30:30;6.60;;;2.50;;
37051;SDS011;22964;52.272;13.356;2022-10-28T07:32:56;6.28;;;2.85;;
37051;SDS011;22964;52.272;13.356;2022-10-28T07:35:28;5.72;;;2.88;;
37051;SDS011;22964;52.272;13.356;2022-10-28T07:37:54;5.53;;;2.72;;
37051;SDS011;22964;52.272;13.356;2022-10-28T07:40:20;6.32;;;2.50;;
37051;SDS011;22964;52.272;13.356;2022-10-28T07:42:46;4.22;;;2.58;;
37051;SDS011;22964;52.272;13.356;2022-10-28T07:45:12;4.82;;;2.47;;
37051;SDS011;22964;52.272;13.356;2022-10-28T07:47:38;5.72;;;2.50;;
37051;SDS011;22964;52.272;13.356;2022-10-28T07:50:05;8.05;;;2.72;;
37051;SDS011;22964;52.272;13.356;2022-10-28T07:52:31;8.48;;;2.60;;
37051;SDS011;22964;52.272;13.356;2022-10-28T07:54:59;6.43;;;2.50;;
37051;SDS011;22964;52.272;13.356;2022-10-28T07:57:24;4.28;;;2.58;;
37051;SDS011;22964;52.272;13.356;2022-10-28T07:59:50;5.70;;;2.60;;
37051;SDS011;22964;52.272;13.356;2022-10-28T08:02:16;5.18;;;2.60;;
37051;SDS011;22964;52.272;13.356;2022-10-28T08:04:43;5.70;;;2.45;;
37051;SDS011;22964;52.272;13.356;2022-10-28T08:07:10;7.78;;;2.80;;
37051;SDS011;22964;52.272;13.356;2022-10-28T08:09:36;5.22;;;2.58;;
37051;SDS011;22964;52.272;13.356;2022-10-28T08:12:01;6.35;;;2.58;;
37051;SDS011;22964;52.272;13.356;2022-10-28T08:14:27;5.43;;;2.30;;
37051;SDS011;22964;52.272;13.356;2022-10-28T08:16:53;4.65;;;2.45;;
37051;SDS011;22964;52.272;13.356;2022-10-28T08:19:18;4.90;;;2.53;;
37051;SDS011;22964;52.272;13.356;2022-10-28T08:21:45;4.75;;;2.28;;
37051;SDS011;22964;52.272;13.356;2022-10-28T08:24:11;4.20;;;2.53;;
37051;SDS011;22964;52.272;13.356;2022-10-28T08:26:36;11.40;;;4.90;;
37051;SDS011;22964;52.272;13.356;2022-10-28T08:29:02;6.93;;;3.17;;
37051;SDS011;22964;52.272;13.356;2022-10-28T08:31:28;9.23;;;2.55;;
37051;SDS011;22964;52.272;13.356;2022-10-28T08:33:56;5.55;;;2.40;;
37051;SDS011;22964;52.272;13.356;2022-10-28T08:36:21;4.65;;;2.47;;
37051;SDS011;22964;52.272;13.356;2022-10-28T08:38:47;4.28;;;2.42;;
37051;SDS011;22964;52.272;13.356;2022-10-28T08:44:08;4.82;;;2.20;;
37051;SDS011;22964;52.272;13.356;2022-10-28T08:49:32;6.47;;;2.67;;
37051;SDS011;22964;52.272;13.356;2022-10-28T08:52:22;4.05;;;2.03;;
37051;SDS011;22964;52.272;13.356;2022-10-28T08:54:52;6.00;;;2.08;;
37051;SDS011;22964;52.272;13.356;2022-10-28T08:57:34;9.90;;;2.22;;
37051;SDS011;22964;52.272;13.356;2022-10-28T09:00:16;5.38;;;2.30;;
37051;SDS011;22964;52.272;13.356;2022-10-28T09:02:59;3.97;;;2.05;;
37051;SDS011;22964;52.272;13.356;2022-10-28T09:05:35;3.42;;;1.95;;
37051;SDS011;22964;52.272;13.356;2022-10-28T09:08:01;4.15;;;2.30;;
37051;SDS011;22964;52.272;13.356;2022-10-28T09:10:35;4.50;;;2.20;;
37051;SDS011;22964;52.272;13.356;2022-10-28T09:15:42;4.82;;;2.13;;
37051;SDS011;22964;52.272;13.356;2022-10-28T09:21:42;5.00;;;2.42;;
37051;SDS011;22964;52.272;13.356;2022-10-28T09:24:28;5.68;;;2.25;;
37051;SDS011;22964;52.272;13.356;2022-10-28T09:35:20;8.52;;;2.45;;
37051;SDS011;22964;52.272;13.356;2022-10-28T09:37:51;6.75;;;2.17;;
37051;SDS011;22964;52.272;13.356;2022-10-28T09:40:36;6.90;;;2.30;;
37051;SDS011;22964;52.272;13.356;2022-10-28T09:45:48;9.45;;;2.08;;
37051;SDS011;22964;52.272;13.356;2022-10-28T09:50:56;5.07;;;2.30;;
37051;SDS011;22964;52.272;13.356;2022-10-28T09:56:07;4.05;;;1.95;;
37051;SDS011;22964;52.272;13.356;2022-10-28T09:58:33;7.35;;;2.30;;
37051;SDS011;22964;52.272;13.356;2022-10-28T10:01:00;5.57;;;2.10;;
37051;SDS011;22964;52.272;13.356;2022-10-28T10:03:27;5.68;;;2.15;;
37051;SDS011;22964;52.272;13.356;2022-10-28T10:05:53;6.00;;;2.45;;
37051;SDS011;22964;52.272;13.356;2022-10-28T10:08:22;5.65;;;2.08;;
37051;SDS011;22964;52.272;13.356;2022-10-28T10:13:26;4.70;;;1.90;;
37051;SDS011;22964;52.272;13.356;2022-10-28T10:15:54;4.53;;;1.90;;
37051;SDS011;22964;52.272;13.356;2022-10-28T10:18:26;6.15;;;1.80;;
37051;SDS011;22964;52.272;13.356;2022-10-28T10:20:55;6.00;;;1.90;;
37051;SDS011;22964;52.272;13.356;2022-10-28T10:28:28;6.57;;;2.05;;
37051;SDS011;22964;52.272;13.356;2022-10-28T10:30:55;3.88;;;2.05;;
37051;SDS011;22964;52.272;13.356;2022-10-28T10:33:30;5.40;;;1.80;;
37051;SDS011;22964;52.272;13.356;2022-10-28T10:36:02;7.47;;;2.40;;
37051;SDS011;22964;52.272;13.356;2022-10-28T10:38:34;6.53;;;2.13;;
37051;SDS011;22964;52.272;13.356;2022-10-28T10:41:01;6.15;;;2.00;;
37051;SDS011;22964;52.272;13.356;2022-10-28T10:43:31;4.28;;;1.67;;
37051;SDS011;22964;52.272;13.356;2022-10-28T10:48:35;5.45;;;2.15;;
37051;SDS011;22964;52.272;13.356;2022-10-28T10:53:47;4.07;;;1.80;;
37051;SDS011;22964;52.272;13.356;2022-10-28T10:56:21;4.22;;;1.85;;
37051;SDS011;22964;52.272;13.356;2022-10-28T10:58:49;4.50;;;1.95;;
37051;SDS011;22964;52.272;13.356;2022-10-28T11:01:35;3.30;;;1.75;;
37051;SDS011;22964;52.272;13.356;2022-10-28T11:04:04;6.18;;;2.00;;
37051;SDS011;22964;52.272;13.356;2022-10-28T11:06:33;5.53;;;2.00;;
37051;SDS011;22964;52.272;13.356;2022-10-28T11:09:03;6.97;;;2.00;;
37051;SDS011;22964;52.272;13.356;2022-10-28T11:16:45;6.03;;;1.83;;
37051;SDS011;22964;52.272;13.356;2022-10-28T11:19:21;5.85;;;1.90;;
37051;SDS011;22964;52.272;13.356;2022-10-28T11:27:02;5.18;;;1.80;;
37051;SDS011;22964;52.272;13.356;2022-10-28T11:29:37;6.22;;;2.20;;
37051;SDS011;22964;52.272;13.356;2022-10-28T11:35:02;4.78;;;1.90;;
37051;SDS011;22964;52.272;13.356;2022-10-28T11:43:11;5.68;;;1.70;;
37051;SDS011;22964;52.272;13.356;2022-10-28T11:45:58;4.47;;;1.88;;
37051;SDS011;22964;52.272;13.356;2022-10-28T11:49:13;5.05;;;1.80;;
37051;SDS011;22964;52.272;13.356;2022-10-28T11:54:36;5.60;;;2.00;;
37051;SDS011;22964;52.272;13.356;2022-10-28T11:57:12;4.70;;;1.73;;
37051;SDS011;22964;52.272;13.356;2022-10-28T12:18:56;5.82;;;1.85;;
37051;SDS011;22964;52.272;13.356;2022-10-28T12:21:36;4.32;;;1.83;;
37051;SDS011;22964;52.272;13.356;2022-10-28T12:24:13;7.72;;;1.95;;
37051;SDS011;22964;52.272;13.356;2022-10-28T12:26:50;4.97;;;2.10;;
37051;SDS011;22964;52.272;13.356;2022-10-28T12:29:23;4.38;;;1.73;;
37051;SDS011;22964;52.272;13.356;2022-10-28T12:31:56;4.50;;;1.80;;
37051;SDS011;22964;52.272;13.356;2022-10-28T12:34:31;5.28;;;1.95;;
37051;SDS011;22964;52.272;13.356;2022-10-28T12:37:07;7.35;;;2.33;;
37051;SDS011;22964;52.272;13.356;2022-10-28T12:42:39;3.00;;;1.52;;
37051;SDS011;22964;52.272;13.356;2022-10-28T12:45:16;4.57;;;2.00;;
37051;SDS011;22964;52.272;13.356;2022-10-28T12:47:47;5.20;;;1.83;;
37051;SDS011;22964;52.272;13.356;2022-10-28T12:51:03;9.07;;;2.55;;
37051;SDS011;22964;52.272;13.356;2022-10-28T12:56:01;7.68;;;2.35;;
37051;SDS011;22964;52.272;13.356;2022-10-28T13:01:07;8.95;;;2.35;;
37051;SDS011;22964;52.272;13.356;2022-10-28T13:03:37;4.10;;;1.80;;
37051;SDS011;22964;52.272;13.356;2022-10-28T13:06:07;8.85;;;1.80;;
37051;SDS011;22964;52.272;13.356;2022-10-28T13:20:16;8.60;;;1.70;;
37051;SDS011;22964;52.272;13.356;2022-10-28T13:25:27;6.32;;;2.13;;
37051;SDS011;22964;52.272;13.356;2022-10-28T13:28:02;4.75;;;1.90;;
37051;SDS011;22964;52.272;13.356;2022-10-28T13:30:28;5.35;;;1.75;;
37051;SDS011;22964;52.272;13.356;2022-10-28T13:33:00;4.72;;;1.60;;
37051;SDS011;22964;52.272;13.356;2022-10-28T13:35:29;3.58;;;1.70;;
37051;SDS011;22964;52.272;13.356;2022-10-28T13:37:56;4.22;;;1.80;;
37051;SDS011;22964;52.272;13.356;2022-10-28T13:41:06;4.90;;;1.90;;
37051;SDS011;22964;52.272;13.356;2022-10-28T13:43:19;7.90;;;1.85;;
37051;SDS011;22964;52.272;13.356;2022-10-28T13:46:05;10.52;;;2.08;;
37051;SDS011;22964;52.272;13.356;2022-10-28T13:48:42;3.92;;;2.28;;
37051;SDS011;22964;52.272;13.356;2022-10-28T13:53:37;5.75;;;2.00;;
37051;SDS011;22964;52.272;13.356;2022-10-28T13:56:17;5.50;;;1.70;;
37051;SDS011;22964;52.272;13.356;2022-10-28T13:58:48;7.82;;;1.70;;
37051;SDS011;22964;52.272;13.356;2022-10-28T14:04:02;3.85;;;2.00;;
37051;SDS011;22964;52.272;13.356;2022-10-28T14:06:29;7.13;;;2.20;;
37051;SDS011;22964;52.272;13.356;2022-10-28T14:08:57;8.60;;;2.13;;
37051;SDS011;22964;52.272;13.356;2022-10-28T14:11:23;4.60;;;1.80;;
37051;SDS011;22964;52.272;13.356;2022-10-28T14:13:53;7.88;;;1.90;;
37051;SDS011;22964;52.272;13.356;2022-10-28T14:19:04;4.10;;;1.60;;
37051;SDS011;22964;52.272;13.356;2022-10-28T14:21:37;6.45;;;2.00;;
37051;SDS011;22964;52.272;13.356;2022-10-28T14:24:09;3.50;;;1.70;;
37051;SDS011;22964;52.272;13.356;2022-10-28T14:29:49;4.68;;;1.90;;
37051;SDS011;22964;52.272;13.356;2022-10-28T14:35:02;4.93;;;1.85;;
37051;SDS011;22964;52.272;13.356;2022-10-28T14:43:47;5.07;;;1.98;;
37051;SDS011;22964;52.272;13.356;2022-10-28T14:49:25;5.30;;;1.83;;
37051;SDS011;22964;52.272;13.356;2022-10-28T14:51:54;4.82;;;1.60;;
37051;SDS011;22964;52.272;13.356;2022-10-28T14:54:35;5.25;;;1.75;;
37051;SDS011;22964;52.272;13.356;2022-10-28T14:57:07;5.43;;;2.00;;
37051;SDS011;22964;52.272;13.356;2022-10-28T14:59:43;6.18;;;1.98;;
37051;SDS011;22964;52.272;13.356;2022-10-28T15:02:11;6.03;;;1.70;;
37051;SDS011;22964;52.272;13.356;2022-10-28T15:04:47;3.70;;;1.67;;
37051;SDS011;22964;52.272;13.356;2022-10-28T15:07:42;5.25;;;2.05;;
37051;SDS011;22964;52.272;13.356;2022-10-28T15:10:12;4.53;;;1.63;;
37051;SDS011;22964;52.272;13.356;2022-10-28T15:12:38;4.25;;;1.63;;
37051;SDS011;22964;52.272;13.356;2022-10-28T15:15:14;4.75;;;1.65;;
37051;SDS011;22964;52.272;13.356;2022-10-28T15:17:42;4.63;;;1.77;;
37051;SDS011;22964;52.272;13.356;2022-10-28T15:20:27;5.05;;;1.70;;
37051;SDS011;22964;52.272;13.356;2022-10-28T15:23:08;5.18;;;1.85;;
37051;SDS011;22964;52.272;13.356;2022-10-28T15:25:40;7.38;;;1.92;;
37051;SDS011;22964;52.272;13.356;2022-10-28T15:28:07;9.43;;;2.22;;
37051;SDS011;22964;52.272;13.356;2022-10-28T15:30:36;5.28;;;2.00;;
37051;SDS011;22964;52.272;13.356;2022-10-28T15:33:16;4.35;;;2.00;;
37051;SDS011;22964;52.272;13.356;2022-10-28T15:35:44;6.00;;;1.92;;
37051;SDS011;22964;52.272;13.356;2022-10-28T15:40:49;5.60;;;2.05;;
37051;SDS011;22964;52.272;13.356;2022-10-28T15:43:16;6.35;;;2.30;;
37051;SDS011;22964;52.272;13.356;2022-10-28T15:45:50;4.25;;;1.83;;
37051;SDS011;22964;52.272;13.356;2022-10-28T15:48:23;4.32;;;1.73;;
37051;SDS011;22964;52.272;13.356;2022-10-28T15:51:13;8.85;;;2.83;;
37051;SDS011;22964;52.272;13.356;2022-10-28T15:53:41;7.18;;;2.33;;
37051;SDS011;22964;52.272;13.356;2022-10-28T15:56:31;5.28;;;1.98;;
37051;SDS011;22964;52.272;13.356;2022-10-28T15:59:16;7.35;;;2.20;;
37051;SDS011;22964;52.272;13.356;2022-10-28T16:01:45;5.55;;;2.10;;
37051;SDS011;22964;52.272;13.356;2022-10-28T16:06:43;7.07;;;2.38;;
37051;SDS011;22964;52.272;13.356;2022-10-28T16:09:29;6.63;;;2.33;;
37051;SDS011;22964;52.272;13.356;2022-10-28T16:11:57;7.97;;;2.50;;
37051;SDS011;22964;52.272;13.356;2022-10-28T16:14:32;5.05;;;2.40;;
37051;SDS011;22964;52.272;13.356;2022-10-28T16:20:13;6.22;;;2.30;;
37051;SDS011;22964;52.272;13.356;2022-10-28T16:22:54;6.32;;;2.30;;
37051;SDS011;22964;52.272;13.356;2022-10-28T16:25:20;4.18;;;1.98;;
37051;SDS011;22964;52.272;13.356;2022-10-28T16:27:47;4.97;;;1.80;;
37051;SDS011;22964;52.272;13.356;2022-10-28T16:30:13;6.32;;;2.10;;
37051;SDS011;22964;52.272;13.356;2022-10-28T16:32:40;5.13;;;2.10;;
37051;SDS011;22964;52.272;13.356;2022-10-28T16:35:20;6.93;;;2.42;;
37051;SDS011;22964;52.272;13.356;2022-10-28T16:37:47;6.28;;;1.92;;
37051;SDS011;22964;52.272;13.356;2022-10-28T16:40:13;4.55;;;2.25;;
37051;SDS011;22964;52.272;13.356;2022-10-28T16:42:39;3.40;;;1.70;;
37051;SDS011;22964;52.272;13.356;2022-10-28T16:45:07;5.72;;;2.30;;
37051;SDS011;22964;52.272;13.356;2022-10-28T16:47:41;5.10;;;1.90;;
37051;SDS011;22964;52.272;13.356;2022-10-28T16:50:06;7.63;;;2.10;;
37051;SDS011;22964;52.272;13.356;2022-10-28T16:52:33;5.10;;;2.03;;
37051;SDS011;22964;52.272;13.356;2022-10-28T16:54:58;4.25;;;1.98;;
37051;SDS011;22964;52.272;13.356;2022-10-28T16:57:24;7.20;;;2.10;;
37051;SDS011;22964;52.272;13.356;2022-10-28T16:59:50;6.70;;;1.83;;
37051;SDS011;22964;52.272;13.356;2022-10-28T17:04:48;7.55;;;1.98;;
37051;SDS011;22964;52.272;13.356;2022-10-28T17:07:14;5.68;;;2.15;;
37051;SDS011;22964;52.272;13.356;2022-10-28T17:09:41;6.38;;;2.22;;
37051;SDS011;22964;52.272;13.356;2022-10-28T17:12:14;9.05;;;2.22;;
37051;SDS011;22964;52.272;13.356;2022-10-28T17:14:41;5.20;;;2.08;;
37051;SDS011;22964;52.272;13.356;2022-10-28T17:17:07;7.95;;;2.63;;
37051;SDS011;22964;52.272;13.356;2022-10-28T17:19:34;8.25;;;2.28;;
37051;SDS011;22964;52.272;13.356;2022-10-28T17:22:01;4.82;;;2.00;;
37051;SDS011;22964;52.272;13.356;2022-10-28T17:24:26;7.38;;;2.28;;
37051;SDS011;22964;52.272;13.356;2022-10-28T17:26:52;9.00;;;2.28;;
37051;SDS011;22964;52.272;13.356;2022-10-28T17:29:18;8.98;;;2.30;;
37051;SDS011;22964;52.272;13.356;2022-10-28T17:31:43;6.88;;;2.00;;
37051;SDS011;22964;52.272;13.356;2022-10-28T17:34:09;5.32;;;2.45;;